createdAt,value
2023-10-29T00:02:13.232Z,101199.25
2023-10-29T00:04:40.541Z,101205.47
2023-10-29T00:07:07.725Z,101205.84
2023-10-29T00:09:35.128Z,101201.44
2023-10-29T00:12:02.403Z,101188.00
2023-10-29T00:14:30.916Z,101189.16
2023-10-29T00:16:58.887Z,101190.31
2023-10-29T00:19:26.155Z,101196.53
2023-10-29T00:21:53.303Z,101202.03
2023-10-29T00:24:21.005Z,101198.59
2023-10-29T00:26:48.192Z,101201.59
2023-10-29T00:29:15.431Z,101206.66
2023-10-29T00:31:43.091Z,101208.16
2023-10-29T00:34:10.354Z,101208.94
2023-10-29T00:36:37.642Z,101208.16
2023-10-29T00:39:04.977Z,101214.03
2023-10-29T00:41:32.728Z,101207.72
2023-10-29T00:43:59.906Z,101211.25
2023-10-29T00:46:27.366Z,101204.84
2023-10-29T00:48:54.728Z,101196.78
2023-10-29T00:51:22.047Z,101205.44
2023-10-29T00:53:49.487Z,101214.84
2023-10-29T00:56:20.050Z,101207.81
2023-10-29T00:58:47.749Z,101213.34
2023-10-29T01:01:15.097Z,101214.13
2023-10-29T01:03:42.735Z,101219.66
2023-10-29T01:06:11.999Z,101217.38
2023-10-29T01:08:39.655Z,101223.69
2023-10-29T01:11:08.360Z,101233.56
2023-10-29T01:13:35.774Z,101236.44
2023-10-29T01:16:06.335Z,101223.91
2023-10-29T01:18:33.829Z,101234.25
2023-10-29T01:21:01.601Z,101231.16
2023-10-29T01:23:30.294Z,101239.19
2023-10-29T01:26:01.460Z,101232.84
2023-10-29T01:28:28.979Z,101235.25
2023-10-29T01:30:56.553Z,101228.72
2023-10-29T01:33:23.753Z,101225.59
2023-10-29T01:35:51.253Z,101234.91
2023-10-29T01:38:18.599Z,101239.53
2023-10-29T01:40:45.714Z,101239.06
2023-10-29T01:43:12.962Z,101233.91
2023-10-29T01:45:40.113Z,101227.94
2023-10-29T01:48:07.366Z,101232.66
2023-10-29T01:50:34.708Z,101223.09
2023-10-29T01:53:01.857Z,101220.34
2023-10-29T01:55:29.215Z,101221.94
2023-10-29T01:57:56.759Z,101219.97
2023-10-29T02:00:23.828Z,101214.03
2023-10-29T02:02:51.568Z,101213.91
2023-10-29T02:05:18.880Z,101216.56
2023-10-29T02:07:46.611Z,101203.91
2023-10-29T02:10:13.696Z,101211.84
2023-10-29T02:12:40.888Z,101213.81
2023-10-29T02:15:09.011Z,101216.56
2023-10-29T02:17:37.641Z,101196.31
2023-10-29T02:20:06.833Z,101197.47
2023-10-29T02:22:34.094Z,101203.00
2023-10-29T02:25:01.254Z,101205.28
2023-10-29T02:27:28.391Z,101213.22
2023-10-29T02:29:55.784Z,101204.97
2023-10-29T02:32:23.889Z,101206.91
2023-10-29T02:34:51.143Z,101204.59
2023-10-29T02:37:18.411Z,101215.19
2023-10-29T02:39:46.516Z,101211.16
2023-10-29T02:42:18.178Z,101209.91
2023-10-29T02:44:45.671Z,101210.59
2023-10-29T02:47:13.132Z,101208.19
2023-10-29T02:49:41.068Z,101217.25
2023-10-29T02:52:08.253Z,101224.28
2023-10-29T02:54:35.512Z,101233.69
2023-10-29T02:57:04.212Z,101230.94
2023-10-29T02:59:33.047Z,101233.69
2023-10-29T03:02:00.155Z,101234.72
2023-10-29T03:04:27.392Z,101224.41
2023-10-29T03:06:54.548Z,101225.66
2023-10-29T03:09:21.815Z,101237.84
2023-10-29T03:11:49.391Z,101237.03
2023-10-29T03:14:16.922Z,101234.16
2023-10-29T03:16:44.166Z,101246.00
2023-10-29T03:19:11.336Z,101242.31
2023-10-29T03:21:38.569Z,101247.34
2023-10-29T03:24:06.170Z,101246.06
2023-10-29T03:26:33.421Z,101244.47
2023-10-29T03:29:00.648Z,101242.06
2023-10-29T03:31:27.792Z,101249.88
2023-10-29T03:33:55.115Z,101242.28
2023-10-29T03:36:22.331Z,101246.63
2023-10-29T03:38:49.724Z,101248.47
2023-10-29T03:41:21.779Z,101246.53
2023-10-29T03:43:49.916Z,101255.59
2023-10-29T03:46:17.466Z,101257.91
2023-10-29T03:48:46.100Z,101263.41
2023-10-29T03:51:14.297Z,101261.34
2023-10-29T03:53:42.011Z,101262.03
2023-10-29T03:56:09.955Z,101266.25
2023-10-29T03:58:37.317Z,101268.53
2023-10-29T04:01:04.824Z,101268.91
2023-10-29T04:03:32.413Z,101270.06
2023-10-29T04:06:00.024Z,101264.06
2023-10-29T04:08:27.267Z,101264.44
2023-10-29T04:10:54.453Z,101259.72
2023-10-29T04:13:21.856Z,101267.50
2023-10-29T04:15:49.331Z,101266.59
2023-10-29T04:18:16.813Z,101262.91
2023-10-29T04:20:44.027Z,101263.72
2023-10-29T04:23:11.383Z,101266.09
2023-10-29T04:25:38.537Z,101265.31
2023-10-29T04:28:05.860Z,101270.50
2023-10-29T04:30:33.200Z,101258.66
2023-10-29T04:33:00.483Z,101264.50
2023-10-29T04:35:27.838Z,101266.09
2023-10-29T04:37:55.120Z,101272.78
2023-10-29T04:40:22.319Z,101280.25
2023-10-29T04:42:49.590Z,101277.81
2023-10-29T04:45:16.771Z,101276.56
2023-10-29T04:47:44.256Z,101277.38
2023-10-29T04:50:11.690Z,101279.66
2023-10-29T04:52:39.598Z,101275.28
2023-10-29T04:55:07.131Z,101272.06
2023-10-29T04:57:34.470Z,101275.84
2023-10-29T05:00:02.092Z,101272.53
2023-10-29T05:02:30.615Z,101277.25
2023-10-29T05:04:58.172Z,101270.47
2023-10-29T05:07:25.369Z,101282.75
2023-10-29T05:09:52.684Z,101282.28
2023-10-29T05:12:19.790Z,101287.91
2023-10-29T05:14:52.125Z,101283.19
2023-10-29T05:17:19.411Z,101289.06
2023-10-29T05:19:46.812Z,101287.78
2023-10-29T05:22:14.046Z,101293.97
2023-10-29T05:24:41.303Z,101298.19
2023-10-29T05:27:08.404Z,101297.09
2023-10-29T05:29:36.222Z,101306.28
2023-10-29T05:32:03.604Z,101310.56
2023-10-29T05:34:30.760Z,101315.28
2023-10-29T05:36:57.951Z,101312.00
2023-10-29T05:39:25.087Z,101313.69
2023-10-29T05:41:52.337Z,101319.78
2023-10-29T05:44:19.861Z,101309.84
2023-10-29T05:46:46.979Z,101313.91
2023-10-29T05:49:14.256Z,101324.97
2023-10-29T05:51:41.382Z,101323.56
2023-10-29T05:54:08.569Z,101328.97
2023-10-29T05:56:35.816Z,101328.84
2023-10-29T05:59:03.843Z,101339.88
2023-10-29T06:01:31.119Z,101337.47
2023-10-29T06:03:58.442Z,101339.50
2023-10-29T06:06:25.718Z,101336.59
2023-10-29T06:08:52.898Z,101339.66
2023-10-29T06:11:20.386Z,101338.91
2023-10-29T06:13:47.845Z,101351.81
2023-10-29T06:16:15.402Z,101350.25
2023-10-29T06:18:42.815Z,101354.28
2023-10-29T06:21:10.095Z,101357.00
2023-10-29T06:23:38.536Z,101360.97
2023-10-29T06:26:09.965Z,101359.19
2023-10-29T06:28:37.262Z,101361.91
2023-10-29T06:31:05.265Z,101361.50
2023-10-29T06:33:32.668Z,101377.34
2023-10-29T06:36:00.401Z,101376.75
2023-10-29T06:38:27.569Z,101383.88
2023-10-29T06:40:55.216Z,101382.41
2023-10-29T06:43:22.704Z,101378.75
2023-10-29T06:45:49.998Z,101391.25
2023-10-29T06:48:17.657Z,101391.94
2023-10-29T06:50:45.090Z,101388.94
2023-10-29T06:53:12.227Z,101389.25
2023-10-29T06:55:41.463Z,101393.53
2023-10-29T06:58:08.737Z,101399.59
2023-10-29T07:00:35.918Z,101394.44
2023-10-29T07:03:04.072Z,101400.69
2023-10-29T07:05:31.564Z,101408.16
2023-10-29T07:08:00.400Z,101403.91
2023-10-29T07:10:28.285Z,101407.66
2023-10-29T07:12:55.465Z,101410.06
2023-10-29T07:15:22.594Z,101419.25
2023-10-29T07:17:49.899Z,101411.91
2023-10-29T07:20:17.152Z,101417.38
2023-10-29T07:22:44.547Z,101420.16
2023-10-29T07:25:12.057Z,101425.78
2023-10-29T07:27:39.526Z,101430.53
2023-10-29T07:30:07.709Z,101422.19
2023-10-29T07:32:35.782Z,101424.25
2023-10-29T07:35:03.145Z,101426.78
2023-10-29T07:37:30.303Z,101433.38
2023-10-29T07:39:57.590Z,101430.59
2023-10-29T07:42:26.121Z,101435.03
2023-10-29T07:44:55.055Z,101431.53
2023-10-29T07:47:22.382Z,101426.06
2023-10-29T07:49:49.604Z,101430.22
2023-10-29T07:52:17.325Z,101434.16
2023-10-29T07:54:44.753Z,101438.19
2023-10-29T07:57:12.015Z,101443.81
2023-10-29T07:59:39.261Z,101438.13
2023-10-29T08:02:07.492Z,101435.28
2023-10-29T08:04:34.781Z,101429.19
2023-10-29T08:07:01.926Z,101441.06
2023-10-29T08:09:29.218Z,101445.19
2023-10-29T08:11:56.447Z,101452.97
2023-10-29T08:14:23.863Z,101440.06
2023-10-29T08:16:50.957Z,101447.53
2023-10-29T08:19:18.180Z,101443.69
2023-10-29T08:21:45.360Z,101435.28
2023-10-29T08:24:12.729Z,101435.41
2023-10-29T08:26:40.008Z,101443.69
2023-10-29T08:29:07.651Z,101438.94
2023-10-29T08:31:34.827Z,101437.50
2023-10-29T08:34:02.164Z,101444.00
2023-10-29T08:36:29.952Z,101444.97
2023-10-29T08:38:57.264Z,101447.34
2023-10-29T08:41:24.434Z,101449.03
2023-10-29T08:43:53.516Z,101449.63
2023-10-29T08:46:21.202Z,101450.59
2023-10-29T08:48:48.447Z,101451.84
2023-10-29T08:51:17.166Z,101452.34
2023-10-29T08:53:44.458Z,101451.16
2023-10-29T08:56:11.704Z,101453.84
2023-10-29T08:58:39.501Z,101446.19
2023-10-29T09:01:13.911Z,101454.59
2023-10-29T09:03:41.661Z,101462.00
2023-10-29T09:06:09.181Z,101450.84
2023-10-29T09:08:36.926Z,101452.56
2023-10-29T09:11:04.311Z,101445.66
2023-10-29T09:13:31.618Z,101439.94
2023-10-29T09:15:59.390Z,101453.25
2023-10-29T09:18:27.045Z,101454.28
2023-10-29T09:20:54.392Z,101464.69
2023-10-29T09:23:21.685Z,101461.53
2023-10-29T09:25:49.154Z,101457.47
2023-10-29T09:28:16.740Z,101456.22
2023-10-29T09:30:44.141Z,101462.16
2023-10-29T09:33:14.457Z,101455.91
2023-10-29T09:35:41.848Z,101455.81
2023-10-29T09:38:09.216Z,101461.41
2023-10-29T09:40:39.953Z,101453.34
2023-10-29T09:43:10.499Z,101447.41
2023-10-29T09:45:50.184Z,101455.47
2023-10-29T09:48:17.667Z,101460.69
2023-10-29T09:50:45.916Z,101462.66
2023-10-29T09:53:16.093Z,101455.03
2023-10-29T09:55:43.533Z,101457.00
2023-10-29T09:58:11.099Z,101457.38
2023-10-29T10:00:38.703Z,101457.31
2023-10-29T10:03:05.971Z,101459.25
2023-10-29T10:05:34.386Z,101452.69
2023-10-29T10:08:01.759Z,101446.03
2023-10-29T10:10:38.101Z,101447.63
2023-10-29T10:13:05.915Z,101455.00
2023-10-29T10:15:33.795Z,101454.47
2023-10-29T10:18:03.301Z,101443.03
2023-10-29T10:20:30.532Z,101449.19
2023-10-29T10:23:12.636Z,101441.88
2023-10-29T10:25:39.990Z,101441.19
2023-10-29T10:28:07.852Z,101438.94
2023-10-29T10:30:39.038Z,101433.41
2023-10-29T10:33:17.049Z,101425.66
2023-10-29T10:35:58.059Z,101429.78
2023-10-29T10:38:25.235Z,101427.38
2023-10-29T10:41:02.637Z,101426.03
2023-10-29T10:43:29.950Z,101426.03
2023-10-29T10:45:59.864Z,101423.94
2023-10-29T10:48:28.644Z,101412.81
2023-10-29T10:50:57.484Z,101419.53
2023-10-29T10:53:26.842Z,101412.47
2023-10-29T10:56:02.322Z,101418.94
2023-10-29T10:58:31.032Z,101412.09
2023-10-29T11:01:00.468Z,101411.56
2023-10-29T11:03:33.360Z,101415.69
2023-10-29T11:06:01.512Z,101407.53
2023-10-29T11:08:29.234Z,101405.47
2023-10-29T11:10:58.779Z,101402.06
2023-10-29T11:13:30.228Z,101405.91
2023-10-29T11:15:57.622Z,101406.66
2023-10-29T11:18:34.038Z,101403.88
2023-10-29T11:21:04.662Z,101398.63
2023-10-29T11:23:33.898Z,101403.25
2023-10-29T11:26:29.375Z,101397.28
2023-10-29T11:28:56.845Z,101388.94
2023-10-29T11:31:26.531Z,101390.28
2023-10-29T11:33:57.036Z,101385.94
2023-10-29T11:36:35.911Z,101381.13
2023-10-29T11:39:16.265Z,101387.53
2023-10-29T11:41:47.616Z,101379.31
2023-10-29T11:44:22.851Z,101368.72
2023-10-29T11:46:59.287Z,101372.59
2023-10-29T11:49:31.966Z,101368.22
2023-10-29T11:52:03.302Z,101367.22
2023-10-29T11:54:33.962Z,101371.09
2023-10-29T11:57:01.899Z,101361.41
2023-10-29T11:59:29.141Z,101359.06
2023-10-29T12:01:56.370Z,101360.84
2023-10-29T12:04:32.850Z,101362.63
2023-10-29T12:07:00.891Z,101354.38
2023-10-29T12:09:33.364Z,101344.94
2023-10-29T12:12:10.154Z,101345.97
2023-10-29T12:14:48.766Z,101342.13
2023-10-29T12:17:16.403Z,101343.63
2023-10-29T12:19:46.264Z,101335.63
2023-10-29T12:22:22.500Z,101334.69
2023-10-29T12:24:55.105Z,101338.97
2023-10-29T12:27:24.211Z,101335.75
2023-10-29T12:29:52.306Z,101332.47
2023-10-29T12:32:24.545Z,101338.41
2023-10-29T12:34:53.872Z,101333.09
2023-10-29T12:37:28.483Z,101337.94
2023-10-29T12:39:57.942Z,101330.31
2023-10-29T12:42:54.337Z,101318.84
2023-10-29T12:45:29.953Z,101314.88
2023-10-29T12:48:23.614Z,101309.00
2023-10-29T12:50:54.462Z,101316.41
2023-10-29T12:53:29.888Z,101310.84
2023-10-29T12:55:58.965Z,101308.03
2023-10-29T12:58:27.615Z,101310.28
2023-10-29T13:00:58.766Z,101308.44
2023-10-29T13:03:26.305Z,101304.94
2023-10-29T13:05:55.968Z,101296.25
2023-10-29T13:08:26.910Z,101305.78
2023-10-29T13:10:54.504Z,101303.31
2023-10-29T13:13:25.085Z,101296.75
2023-10-29T13:15:53.182Z,101299.22
2023-10-29T13:18:20.799Z,101294.03
2023-10-29T13:20:49.076Z,101298.25
2023-10-29T13:23:16.346Z,101297.41
2023-10-29T13:25:43.562Z,101295.66
2023-10-29T13:28:11.521Z,101297.25
2023-10-29T13:30:38.738Z,101297.25
2023-10-29T13:33:06.159Z,101297.34
2023-10-29T13:35:33.427Z,101296.97
2023-10-29T13:38:00.701Z,101296.47
2023-10-29T13:40:27.866Z,101294.44
2023-10-29T13:42:55.152Z,101287.97
2023-10-29T13:45:22.421Z,101300.69
2023-10-29T13:47:49.816Z,101291.59
2023-10-29T13:50:16.977Z,101294.81
2023-10-29T13:52:44.483Z,101296.13
2023-10-29T13:55:11.739Z,101293.34
2023-10-29T13:57:39.144Z,101299.69
2023-10-29T14:00:10.032Z,101287.28
2023-10-29T14:02:40.077Z,101291.19
2023-10-29T14:05:08.404Z,101288.09
2023-10-29T14:07:35.652Z,101287.03
2023-10-29T14:10:02.895Z,101286.16
2023-10-29T14:12:30.113Z,101280.56
2023-10-29T14:14:58.197Z,101279.75
2023-10-29T14:17:25.787Z,101283.72
2023-10-29T14:19:53.085Z,101281.19
2023-10-29T14:22:20.424Z,101278.69
2023-10-29T14:24:48.852Z,101277.09
2023-10-29T14:27:16.111Z,101279.50
2023-10-29T14:29:43.487Z,101284.94
2023-10-29T14:32:11.748Z,101274.94
2023-10-29T14:34:39.041Z,101282.41
2023-10-29T14:37:06.471Z,101285.56
2023-10-29T14:39:33.658Z,101291.19
2023-10-29T14:42:00.876Z,101285.25
2023-10-29T14:44:28.691Z,101274.19
2023-10-29T14:46:57.034Z,101280.94
2023-10-29T14:49:25.458Z,101285.47
2023-10-29T14:51:52.618Z,101281.41
2023-10-29T14:54:20.230Z,101284.03
2023-10-29T14:56:48.280Z,101295.09
2023-10-29T14:59:15.408Z,101282.34
2023-10-29T15:01:42.735Z,101283.88
2023-10-29T15:04:09.898Z,101282.69
2023-10-29T15:06:38.527Z,101292.84
2023-10-29T15:09:06.988Z,101282.50
2023-10-29T15:11:37.345Z,101286.41
2023-10-29T15:14:06.737Z,101292.00
2023-10-29T15:16:34.836Z,101281.72
2023-10-29T15:19:05.793Z,101277.22
2023-10-29T15:21:34.506Z,101288.06
2023-10-29T15:24:01.996Z,101277.63
2023-10-29T15:26:29.664Z,101280.06
2023-10-29T15:28:56.910Z,101296.25
2023-10-29T15:31:24.262Z,101286.94
2023-10-29T15:33:51.514Z,101298.81
2023-10-29T15:36:19.465Z,101301.16
2023-10-29T15:38:47.009Z,101290.66
2023-10-29T15:41:14.861Z,101297.00
2023-10-29T15:43:42.275Z,101304.91
2023-10-29T15:46:10.418Z,101305.88
2023-10-29T15:48:40.863Z,101304.72
2023-10-29T15:51:10.064Z,101311.41
2023-10-29T15:53:38.245Z,101304.28
2023-10-29T15:56:09.952Z,101310.56
2023-10-29T15:58:37.673Z,101310.09
2023-10-29T16:01:05.204Z,101316.09
2023-10-29T16:03:32.701Z,101316.38
2023-10-29T16:06:08.315Z,101327.38
2023-10-29T16:08:39.812Z,101327.31
2023-10-29T16:11:08.247Z,101321.31
2023-10-29T16:13:35.648Z,101330.75
2023-10-29T16:16:03.495Z,101324.66
2023-10-29T16:18:31.091Z,101327.91
2023-10-29T16:21:01.622Z,101327.03
2023-10-29T16:23:29.385Z,101339.69
2023-10-29T16:25:56.619Z,101338.97
2023-10-29T16:28:23.886Z,101334.59
2023-10-29T16:30:51.222Z,101342.53
2023-10-29T16:33:18.568Z,101342.00
2023-10-29T16:35:45.946Z,101347.28
2023-10-29T16:38:13.227Z,101344.44
2023-10-29T16:40:48.652Z,101349.09
2023-10-29T16:43:17.025Z,101359.72
2023-10-29T16:45:45.899Z,101360.13
2023-10-29T16:48:13.414Z,101364.75
2023-10-29T16:50:56.365Z,101371.28
2023-10-29T16:53:28.598Z,101370.03
2023-10-29T16:56:02.354Z,101377.00
2023-10-29T16:58:29.665Z,101387.66
2023-10-29T17:00:56.809Z,101389.59
2023-10-29T17:03:24.074Z,101383.56
2023-10-29T17:05:51.543Z,101395.44
2023-10-29T17:08:18.698Z,101396.59
2023-10-29T17:10:48.927Z,101400.50
2023-10-29T17:13:17.949Z,101399.72
2023-10-29T17:15:45.242Z,101402.03
2023-10-29T17:18:12.582Z,101408.41
2023-10-29T17:20:39.961Z,101395.69
2023-10-29T17:23:07.056Z,101402.84
2023-10-29T17:25:37.604Z,101412.31
2023-10-29T17:28:04.961Z,101414.66
2023-10-29T17:30:34.155Z,101412.59
2023-10-29T17:33:01.379Z,101409.34
2023-10-29T17:35:31.992Z,101416.47
2023-10-29T17:37:59.444Z,101420.91
2023-10-29T17:40:27.024Z,101418.72
2023-10-29T17:42:54.406Z,101417.47
2023-10-29T17:45:21.795Z,101414.16
2023-10-29T17:47:50.439Z,101414.94
2023-10-29T17:50:17.663Z,101420.47
2023-10-29T17:52:45.115Z,101416.91
2023-10-29T17:55:12.327Z,101412.47
2023-10-29T17:57:39.442Z,101426.38
2023-10-29T18:00:08.801Z,101425.22
2023-10-29T18:02:40.463Z,101428.91
2023-10-29T18:05:10.911Z,101419.78
2023-10-29T18:07:38.184Z,101427.75
2023-10-29T18:10:05.951Z,101430.13
2023-10-29T18:12:33.649Z,101422.19
2023-10-29T18:15:01.140Z,101423.38
2023-10-29T18:17:28.601Z,101418.53
2023-10-29T18:19:55.834Z,101423.25
2023-10-29T18:22:23.145Z,101419.69
2023-10-29T18:24:50.665Z,101427.56
2023-10-29T18:27:18.009Z,101419.50
2023-10-29T18:29:45.208Z,101424.59
2023-10-29T18:32:12.447Z,101424.84
2023-10-29T18:34:39.710Z,101412.19
2023-10-29T18:37:07.007Z,101419.66
2023-10-29T18:39:34.375Z,101412.53
2023-10-29T18:42:01.936Z,101412.53
2023-10-29T18:44:31.597Z,101420.84
2023-10-29T18:47:00.060Z,101415.22
2023-10-29T18:49:28.797Z,101420.41
2023-10-29T18:51:59.165Z,101414.03
2023-10-29T18:54:26.667Z,101408.88
2023-10-29T18:56:54.183Z,101420.75
2023-10-29T18:59:24.799Z,101417.50
2023-10-29T19:01:52.151Z,101418.22
2023-10-29T19:04:19.468Z,101411.47
2023-10-29T19:06:46.767Z,101411.00
2023-10-29T19:09:14.617Z,101417.31
2023-10-29T19:11:41.912Z,101412.25
2023-10-29T19:14:09.113Z,101412.59
2023-10-29T19:16:36.448Z,101422.16
2023-10-29T19:19:04.205Z,101412.25
2023-10-29T19:21:31.666Z,101406.63
2023-10-29T19:23:58.990Z,101414.13
2023-10-29T19:26:26.225Z,101413.31
2023-10-29T19:28:53.510Z,101411.00
2023-10-29T19:31:27.475Z,101415.72
2023-10-29T19:33:55.693Z,101417.69
2023-10-29T19:36:23.426Z,101424.38
2023-10-29T19:38:50.695Z,101417.22
2023-10-29T19:41:17.996Z,101421.88
2023-10-29T19:43:45.731Z,101419.56
2023-10-29T19:46:18.772Z,101428.56
2023-10-29T19:48:46.186Z,101424.19
2023-10-29T19:51:13.550Z,101429.28
2023-10-29T19:53:40.868Z,101426.50
2023-10-29T19:56:09.322Z,101424.53
2023-10-29T19:58:36.772Z,101428.81
2023-10-29T20:01:08.961Z,101427.56
2023-10-29T20:03:36.994Z,101437.13
2023-10-29T20:06:12.466Z,101433.88
2023-10-29T20:08:41.762Z,101438.28
2023-10-29T20:11:10.899Z,101444.94
2023-10-29T20:13:44.181Z,101437.03
2023-10-29T20:16:11.874Z,101434.94
2023-10-29T20:18:39.475Z,101439.53
2023-10-29T20:21:12.429Z,101438.28
2023-10-29T20:23:39.931Z,101431.84
2023-10-29T20:26:18.718Z,101435.66
2023-10-29T20:28:49.688Z,101436.81
2023-10-29T20:31:18.003Z,101442.25
2023-10-29T20:33:45.840Z,101441.78
2023-10-29T20:36:14.297Z,101446.06
2023-10-29T20:38:41.789Z,101450.00
2023-10-29T20:41:11.804Z,101446.41
2023-10-29T20:43:39.954Z,101446.28
2023-10-29T20:46:10.349Z,101443.44
2023-10-29T20:48:38.501Z,101446.19
2023-10-29T20:51:06.151Z,101442.97
2023-10-29T20:53:33.466Z,101438.22
2023-10-29T20:56:07.141Z,101446.19
2023-10-29T20:58:35.648Z,101448.16
2023-10-29T21:01:04.283Z,101440.19
2023-10-29T21:03:31.759Z,101434.19
2023-10-29T21:05:59.802Z,101436.97
2023-10-29T21:08:27.542Z,101442.84
2023-10-29T21:11:14.833Z,101425.81
2023-10-29T21:13:47.256Z,101442.84
2023-10-29T21:16:21.463Z,101435.25
2023-10-29T21:18:50.303Z,101432.88
2023-10-29T21:21:17.709Z,101433.19
2023-10-29T21:23:45.070Z,101447.03
2023-10-29T21:26:12.389Z,101447.38
2023-10-29T21:28:40.031Z,101452.44
2023-10-29T21:31:08.414Z,101448.09
2023-10-29T21:33:36.249Z,101449.22
2023-10-29T21:36:06.862Z,101442.56
2023-10-29T21:38:34.201Z,101438.16
2023-10-29T21:41:06.059Z,101436.56
2023-10-29T21:43:35.563Z,101439.31
2023-10-29T21:46:08.097Z,101443.25
2023-10-29T21:48:37.499Z,101445.22
2023-10-29T21:51:09.005Z,101444.38
2023-10-29T21:53:36.309Z,101442.34
2023-10-29T21:56:06.397Z,101445.09
2023-10-29T21:58:34.723Z,101444.28
2023-10-29T22:01:02.621Z,101437.94
2023-10-29T22:03:31.179Z,101434.28
2023-10-29T22:06:05.833Z,101430.34
2023-10-29T22:08:34.307Z,101433.13
2023-10-29T22:11:02.224Z,101428.75
2023-10-29T22:13:31.018Z,101435.78
2023-10-29T22:16:18.959Z,101440.50
2023-10-29T22:18:46.269Z,101440.41
2023-10-29T22:21:14.095Z,101443.06
2023-10-29T22:23:42.220Z,101437.53
2023-10-29T22:26:09.788Z,101439.13
2023-10-29T22:28:38.293Z,101439.03
2023-10-29T22:31:06.349Z,101435.47
2023-10-29T22:33:35.010Z,101440.28
2023-10-29T22:36:04.720Z,101434.78
2023-10-29T22:38:32.080Z,101431.53
2023-10-29T22:41:10.772Z,101436.25
2023-10-29T22:43:38.140Z,101437.88
2023-10-29T22:46:05.726Z,101439.03
2023-10-29T22:48:34.051Z,101435.78
2023-10-29T22:51:02.469Z,101440.09
2023-10-29T22:53:29.731Z,101432.59
2023-10-29T22:56:03.263Z,101431.00
2023-10-29T22:58:30.673Z,101429.03
2023-10-29T23:00:58.910Z,101427.41
2023-10-29T23:03:27.654Z,101429.03
2023-10-29T23:05:55.250Z,101424.19
2023-10-29T23:08:22.461Z,101426.16
2023-10-29T23:10:49.717Z,101432.03
2023-10-29T23:13:17.418Z,101438.22
2023-10-29T23:15:44.710Z,101440.56
2023-10-29T23:18:12.121Z,101434.19
2023-10-29T23:20:39.418Z,101425.47
2023-10-29T23:23:08.396Z,101440.88
2023-10-29T23:25:35.481Z,101443.22
2023-10-29T23:28:02.790Z,101444.34
2023-10-29T23:30:31.101Z,101447.09
2023-10-29T23:32:58.363Z,101444.94
2023-10-29T23:35:26.123Z,101442.53
2023-10-29T23:37:54.519Z,101449.53
2023-10-29T23:40:24.484Z,101442.41
2023-10-29T23:42:51.703Z,101450.22
2023-10-29T23:45:18.996Z,101443.91
2023-10-29T23:47:46.383Z,101441.47
2023-10-29T23:50:13.627Z,101445.84
2023-10-29T23:52:41.103Z,101442.63
2023-10-29T23:55:08.804Z,101449.31
2023-10-29T23:57:36.166Z,101448.47
